Time;durP1;ratioP1;P1;durP2;ratioP2;P2;SDS_P1;SDS_P2;PMS_P1;PMS_P2;Temp;Humidity;BMP_temperature;BMP_pressure;BME280_temperature;BME280_humidity;BME280_pressure;Samples;Min_cycle;Max_cycle;Signal;HPM_P1;HPM_P2
2022/05/30 00:00:02;;;;;;;7.28;2.08;;;13.30;95.70;;;;;;2079482;28;20113;-71
2022/05/30 00:01:14;;;;;;;5.18;1.60;;;13.20;96.00;;;;;;2084833;28;20090;-71
2022/05/30 00:02:14;;;;;;;7.85;2.22;;;13.30;95.50;;;;;;2082950;28;20175;-71
2022/05/30 00:03:15;;;;;;;6.90;2.38;;;13.30;95.70;;;;;;2080860;28;20055;-71
2022/05/30 00:04:16;;;;;;;6.82;1.90;;;13.30;96.00;;;;;;2082703;28;20432;-71
2022/05/30 00:05:17;;;;;;;7.43;2.10;;;13.30;96.00;;;;;;2082378;28;20433;-71
2022/05/30 00:06:21;;;;;;;7.13;2.03;;;13.30;96.50;;;;;;2081337;28;20496;-71
2022/05/30 00:07:21;;;;;;;4.80;1.73;;;13.30;95.70;;;;;;2080899;28;20014;-71
2022/05/30 00:08:22;;;;;;;6.95;2.05;;;13.30;95.70;;;;;;2079808;28;20100;-72
2022/05/30 00:09:22;;;;;;;9.55;2.40;;;13.20;95.20;;;;;;2082093;28;20028;-71
2022/05/30 00:10:23;;;;;;;8.35;2.20;;;13.30;95.10;;;;;;2081277;28;20563;-71
2022/05/30 00:11:26;;;;;;;11.35;2.45;;;13.30;95.20;;;;;;2084099;28;20420;-71
2022/05/30 00:12:27;;;;;;;6.07;1.85;;;13.20;96.20;;;;;;2081137;28;20017;-71
2022/05/30 00:13:27;;;;;;;8.45;2.47;;;13.30;96.20;;;;;;2085557;28;20445;-72
2022/05/30 00:14:28;;;;;;;7.95;1.90;;;13.20;95.90;;;;;;2083060;28;20017;-71
2022/05/30 00:15:29;;;;;;;7.25;2.13;;;13.20;95.70;;;;;;2081996;28;20062;-71
2022/05/30 00:16:30;;;;;;;7.43;2.47;;;13.20;96.30;;;;;;2083449;28;20103;-71
2022/05/30 00:17:30;;;;;;;8.95;2.42;;;13.20;96.40;;;;;;2082157;28;20021;-71
2022/05/30 00:18:31;;;;;;;10.55;2.40;;;13.20;96.60;;;;;;2082223;28;20033;-71
2022/05/30 00:19:31;;;;;;;5.75;2.15;;;13.20;96.90;;;;;;2088039;28;20436;-71
2022/05/30 00:20:32;;;;;;;7.43;2.50;;;13.20;96.50;;;;;;2083912;28;20127;-71
2022/05/30 00:21:32;;;;;;;7.22;2.05;;;13.20;96.90;;;;;;2085096;28;20387;-71
2022/05/30 00:22:33;;;;;;;6.93;2.20;;;13.30;96.50;;;;;;2081990;28;20021;-71
2022/05/30 00:23:34;;;;;;;11.60;2.97;;;13.20;96.90;;;;;;2079991;28;20479;-71
2022/05/30 00:24:35;;;;;;;8.13;2.00;;;13.20;97.80;;;;;;2081754;28;20021;-71
2022/05/30 00:25:38;;;;;;;3.40;1.23;;;13.20;97.30;;;;;;2082323;28;20052;-71
2022/05/30 00:26:39;;;;;;;4.65;1.50;;;13.20;95.80;;;;;;2083472;28;20029;-72
2022/05/30 00:27:39;;;;;;;9.75;2.55;;;13.20;95.30;;;;;;2082463;28;20059;-71
2022/05/30 00:28:39;;;;;;;6.32;2.05;;;13.20;96.60;;;;;;2083126;28;20117;-71
2022/05/30 00:29:40;;;;;;;6.20;1.95;;;13.20;97.10;;;;;;2085170;28;20499;-71
2022/05/30 00:30:41;;;;;;;6.72;1.83;;;13.20;97.40;;;;;;2084630;28;20362;-71
2022/05/30 00:31:41;;;;;;;9.95;2.03;;;13.20;96.70;;;;;;2085801;28;20063;-71
2022/05/30 00:32:42;;;;;;;8.10;1.83;;;13.20;96.40;;;;;;2087869;28;20032;-71
2022/05/30 00:33:44;;;;;;;9.30;2.03;;;13.20;97.00;;;;;;2084259;28;20056;-71
2022/05/30 00:34:44;;;;;;;7.30;2.20;;;13.20;97.30;;;;;;2068853;28;20022;-71
2022/05/30 00:35:46;;;;;;;7.15;2.35;;;13.20;97.30;;;;;;2078060;28;20049;-71
2022/05/30 00:36:46;;;;;;;8.50;2.35;;;13.20;97.60;;;;;;2084797;28;20060;-72
2022/05/30 00:37:47;;;;;;;7.72;2.00;;;13.20;97.60;;;;;;2083370;28;20025;-72
2022/05/30 00:38:48;;;;;;;6.78;2.15;;;13.10;96.60;;;;;;2087215;28;20029;-71
2022/05/30 00:39:49;;;;;;;7.38;2.13;;;13.20;97.30;;;;;;2086373;28;20070;-71
2022/05/30 00:40:49;;;;;;;3.90;1.70;;;13.10;96.80;;;;;;2088347;28;20017;-71
2022/05/30 00:41:50;;;;;;;4.60;1.92;;;13.10;96.90;;;;;;2080979;28;20182;-71
2022/05/30 00:42:50;;;;;;;9.93;2.20;;;13.10;96.80;;;;;;2084007;28;20033;-71
2022/05/30 00:43:51;;;;;;;9.90;2.38;;;13.10;97.50;;;;;;2084434;28;20388;-71
2022/05/30 00:44:52;;;;;;;5.03;1.80;;;13.10;97.90;;;;;;2084786;28;20130;-71
2022/05/30 00:45:54;;;;;;;8.10;2.50;;;13.10;98.20;;;;;;2081449;28;20029;-71
2022/05/30 00:46:54;;;;;;;8.60;2.20;;;13.10;98.30;;;;;;2082611;28;20033;-71
2022/05/30 00:47:55;;;;;;;13.75;2.30;;;13.10;98.50;;;;;;2087830;28;20029;-71
2022/05/30 00:49:08;;;;;;;13.20;2.08;;;13.10;97.70;;;;;;2084492;28;20017;-71
2022/05/30 00:50:09;;;;;;;8.93;2.53;;;13.10;97.40;;;;;;2082899;28;20113;-71
2022/05/30 00:51:13;;;;;;;5.18;1.65;;;13.10;97.90;;;;;;2083810;28;20371;-71
2022/05/30 00:52:28;;;;;;;6.18;1.90;;;13.10;97.90;;;;;;2091978;28;20529;-71
2022/05/30 00:53:31;;;;;;;9.55;2.10;;;13.10;98.80;;;;;;2087534;28;20027;-71
2022/05/30 00:54:45;;;;;;;8.73;1.88;;;13.10;98.10;;;;;;2082815;28;20024;-71
2022/05/30 00:55:48;;;;;;;6.97;2.40;;;13.10;98.40;;;;;;2084254;28;20018;-71
2022/05/30 00:56:53;;;;;;;10.20;2.70;;;13.00;98.30;;;;;;2083146;28;20496;-71
2022/05/30 00:57:56;;;;;;;5.15;2.03;;;13.00;98.80;;;;;;2085181;28;20405;-71
2022/05/30 00:58:58;;;;;;;7.03;2.40;;;13.10;98.40;;;;;;2085240;28;20083;-71
2022/05/30 01:00:02;;;;;;;4.93;1.92;;;13.10;97.70;;;;;;2086160;28;20737;-71
2022/05/30 01:01:04;;;;;;;6.57;2.25;;;13.10;97.90;;;;;;2083765;28;20624;-71
2022/05/30 01:02:07;;;;;;;6.53;1.98;;;13.10;98.10;;;;;;2081711;28;20033;-71
2022/05/30 01:07:08;;;;;;;8.00;2.10;;;13.00;98.50;;;;;;2087753;28;20034;-72
2022/05/30 01:08:09;;;;;;;6.65;1.75;;;13.00;99.00;;;;;;2084410;28;20681;-71
2022/05/30 01:09:16;;;;;;;6.18;2.28;;;13.00;98.70;;;;;;2082060;28;20022;-71
2022/05/30 01:10:19;;;;;;;6.00;1.98;;;13.00;99.50;;;;;;2084230;28;20037;-71
2022/05/30 01:11:20;;;;;;;8.20;2.35;;;13.00;99.90;;;;;;2080890;28;20028;-71
2022/05/30 01:12:37;;;;;;;5.47;2.03;;;13.00;99.60;;;;;;2082685;28;20037;-71
2022/05/30 01:13:38;;;;;;;7.43;1.98;;;13.00;99.60;;;;;;2084527;28;20513;-71
2022/05/30 01:14:42;;;;;;;9.35;2.05;;;13.00;99.40;;;;;;2084319;28;20045;-71
2022/05/30 01:15:42;;;;;;;7.57;2.58;;;13.00;99.90;;;;;;2084710;28;20683;-71
2022/05/30 01:16:43;;;;;;;9.48;2.40;;;13.00;99.60;;;;;;2084768;28;20501;-71
2022/05/30 01:17:55;;;;;;;7.30;1.92;;;13.00;99.90;;;;;;2083156;28;20693;-71
2022/05/30 01:19:01;;;;;;;7.30;2.28;;;13.00;99.50;;;;;;2085945;28;20115;-71
2022/05/30 01:20:26;;;;;;;9.48;2.20;;;13.00;99.60;;;;;;2087503;28;20123;-71
2022/05/30 01:21:56;;;;;;;11.00;2.53;;;13.00;99.60;;;;;;2082243;28;20042;-71
2022/05/30 01:23:22;;;;;;;5.75;1.98;;;13.00;99.90;;;;;;2080013;28;20516;-72
2022/05/30 01:24:50;;;;;;;7.15;1.92;;;12.90;99.90;;;;;;2086409;28;20047;-71
2022/05/30 01:26:26;;;;;;;7.88;1.85;;;12.90;99.90;;;;;;2083832;28;20538;-71
2022/05/30 01:28:00;;;;;;;5.68;1.92;;;13.00;99.90;;;;;;2082344;28;20119;-71
2022/05/30 01:29:07;;;;;;;5.57;1.70;;;12.90;99.90;;;;;;2082533;28;20516;-71
2022/05/30 01:30:11;;;;;;;8.18;2.20;;;12.90;99.90;;;;;;2082679;28;20045;-71
2022/05/30 01:31:13;;;;;;;7.40;2.78;;;12.90;99.90;;;;;;2078158;28;20547;-71
2022/05/30 01:32:22;;;;;;;8.40;2.30;;;12.90;99.90;;;;;;2081070;28;20025;-71
2022/05/30 01:33:23;;;;;;;6.85;2.17;;;12.90;99.90;;;;;;2084316;28;20047;-71
2022/05/30 01:34:26;;;;;;;8.57;2.50;;;13.00;99.90;;;;;;2083039;28;20017;-72
2022/05/30 01:35:28;;;;;;;6.05;2.13;;;13.00;99.90;;;;;;2079755;28;20014;-71
2022/05/30 01:36:31;;;;;;;7.65;2.20;;;13.00;99.90;;;;;;2087322;28;20035;-71
2022/05/30 01:37:31;;;;;;;8.10;2.38;;;13.00;99.90;;;;;;2087925;28;20161;-71
2022/05/30 01:38:32;;;;;;;9.00;2.25;;;13.00;99.90;;;;;;2083549;28;20103;-71
2022/05/30 01:39:33;;;;;;;9.13;2.30;;;13.00;99.90;;;;;;2082016;28;20118;-71
2022/05/30 01:40:33;;;;;;;6.95;2.53;;;13.00;99.90;;;;;;2087988;28;20017;-71
2022/05/30 01:41:34;;;;;;;6.40;2.08;;;13.00;99.90;;;;;;2083469;28;20143;-71
2022/05/30 01:42:35;;;;;;;3.53;1.80;;;13.00;99.90;;;;;;2081449;28;20040;-71
2022/05/30 01:43:35;;;;;;;6.35;2.15;;;13.00;99.90;;;;;;2081649;28;20030;-72
2022/05/30 01:44:36;;;;;;;6.13;2.10;;;13.00;99.90;;;;;;2087185;28;20040;-72
2022/05/30 01:45:36;;;;;;;6.47;2.28;;;13.00;99.90;;;;;;2084227;28;20025;-72
2022/05/30 01:46:37;;;;;;;6.70;2.17;;;13.00;99.90;;;;;;2082341;28;20037;-72
2022/05/30 01:47:37;;;;;;;7.50;2.25;;;13.00;99.90;;;;;;2086799;28;20059;-72
2022/05/30 01:48:38;;;;;;;6.63;2.38;;;13.00;99.90;;;;;;2085907;28;20036;-71
2022/05/30 01:49:38;;;;;;;10.57;2.35;;;13.00;99.90;;;;;;2081983;28;20477;-71
2022/05/30 01:50:39;;;;;;;8.73;1.77;;;13.00;99.90;;;;;;2083300;28;20514;-71
2022/05/30 01:51:40;;;;;;;8.20;2.47;;;13.00;99.90;;;;;;2082350;28;20492;-71
2022/05/30 01:52:40;;;;;;;7.00;1.85;;;13.00;99.90;;;;;;2083492;28;20511;-71
2022/05/30 01:53:41;;;;;;;5.30;1.65;;;13.00;99.90;;;;;;2085482;28;20021;-71
2022/05/30 01:54:41;;;;;;;7.72;1.80;;;13.00;99.90;;;;;;2084754;28;20206;-71
2022/05/30 01:55:42;;;;;;;4.05;1.85;;;13.00;99.90;;;;;;2082229;28;20555;-71
2022/05/30 01:56:43;;;;;;;8.60;2.22;;;13.00;99.90;;;;;;2081904;28;20029;-71
2022/05/30 01:57:44;;;;;;;9.48;2.63;;;13.00;99.90;;;;;;2085000;28;20070;-71
2022/05/30 01:58:44;;;;;;;7.25;2.28;;;13.00;99.90;;;;;;2084317;28;20022;-71
2022/05/30 01:59:45;;;;;;;5.20;2.00;;;13.00;99.90;;;;;;2081432;28;20033;-71
2022/05/30 02:00:45;;;;;;;7.40;1.85;;;13.00;99.90;;;;;;2080404;28;20021;-71
2022/05/30 02:01:46;;;;;;;10.10;2.58;;;13.00;99.90;;;;;;2087530;28;20472;-71
2022/05/30 02:02:47;;;;;;;9.23;2.80;;;13.00;99.90;;;;;;2086729;28;20097;-71
2022/05/30 02:03:50;;;;;;;4.43;1.55;;;13.00;99.90;;;;;;2085367;28;20020;-71
2022/05/30 02:04:52;;;;;;;7.55;2.20;;;13.00;99.90;;;;;;2081426;28;20021;-71
2022/05/30 02:05:53;;;;;;;7.72;2.65;;;13.00;99.90;;;;;;2083338;28;20018;-71
2022/05/30 02:06:53;;;;;;;6.32;2.38;;;13.00;99.90;;;;;;2079881;28;20033;-71
2022/05/30 02:07:54;;;;;;;5.85;2.17;;;13.00;99.90;;;;;;2084062;28;20029;-72
2022/05/30 02:08:55;;;;;;;4.78;1.85;;;13.00;99.90;;;;;;2081476;28;20025;-71
2022/05/30 02:09:56;;;;;;;4.82;1.85;;;13.00;99.90;;;;;;2083635;28;20021;-71
2022/05/30 02:10:56;;;;;;;7.32;2.28;;;13.00;99.90;;;;;;2082734;28;20022;-71
2022/05/30 02:11:57;;;;;;;5.20;2.03;;;13.00;99.90;;;;;;2084302;28;20029;-71
2022/05/30 02:12:58;;;;;;;6.18;2.03;;;13.00;99.90;;;;;;2084010;28;20404;-71
2022/05/30 02:13:58;;;;;;;3.72;1.80;;;13.00;99.90;;;;;;2082470;28;20033;-71
2022/05/30 02:14:59;;;;;;;4.78;1.80;;;13.00;99.90;;;;;;2080947;28;20025;-71
2022/05/30 02:17:21;;;;;;;7.10;1.88;;;13.00;99.90;;;;;;2083338;28;20105;-71
2022/05/30 02:18:21;;;;;;;6.35;2.20;;;13.00;99.90;;;;;;2082573;28;20029;-71
2022/05/30 02:19:22;;;;;;;6.38;2.25;;;13.00;99.90;;;;;;2082474;28;20333;-72
2022/05/30 02:20:22;;;;;;;8.60;2.53;;;13.00;99.90;;;;;;2082355;28;20048;-71
2022/05/30 02:21:23;;;;;;;6.25;2.13;;;13.00;99.90;;;;;;2084081;28;20061;-72
2022/05/30 02:22:28;;;;;;;8.38;2.22;;;13.00;99.90;;;;;;2084765;28;20025;-72
2022/05/30 02:23:29;;;;;;;7.97;2.30;;;13.00;99.90;;;;;;2082175;28;20105;-72
2022/05/30 02:24:29;;;;;;;7.40;1.70;;;12.90;99.90;;;;;;2083976;28;20576;-71
2022/05/30 02:25:30;;;;;;;6.18;2.10;;;12.90;99.90;;;;;;2083535;28;20033;-72
2022/05/30 02:26:31;;;;;;;6.18;2.03;;;12.90;99.90;;;;;;2089779;28;20032;-72
2022/05/30 02:27:31;;;;;;;8.30;2.60;;;12.90;99.90;;;;;;2084413;28;20508;-71
2022/05/30 02:28:32;;;;;;;10.18;2.70;;;12.90;99.90;;;;;;2080800;28;20385;-71
2022/05/30 02:29:33;;;;;;;9.00;2.70;;;12.90;99.90;;;;;;2080352;28;20063;-71
2022/05/30 02:30:34;;;;;;;9.68;2.90;;;12.90;99.90;;;;;;2084945;28;20033;-71
2022/05/30 02:31:34;;;;;;;7.35;2.20;;;12.90;99.90;;;;;;2088041;28;20024;-71
2022/05/30 02:32:35;;;;;;;10.10;2.80;;;12.90;99.90;;;;;;2084857;28;20507;-71
2022/05/30 02:36:39;;;;;;;6.50;2.33;;;12.80;99.90;;;;;;2086965;28;20068;-72
2022/05/30 02:37:40;;;;;;;11.30;2.97;;;12.80;99.90;;;;;;2085579;28;20468;-72
2022/05/30 02:38:41;;;;;;;8.50;2.33;;;12.70;99.90;;;;;;2083484;28;20051;-71
2022/05/30 02:39:42;;;;;;;8.48;2.70;;;12.70;99.90;;;;;;2083642;28;20600;-71
2022/05/30 02:40:42;;;;;;;13.50;3.47;;;12.70;99.90;;;;;;2083296;28;20029;-71
2022/05/30 02:41:46;;;;;;;8.98;2.28;;;12.70;99.90;;;;;;2080580;28;20455;-72
2022/05/30 02:42:47;;;;;;;12.00;2.63;;;12.70;99.90;;;;;;2083841;28;20127;-71
2022/05/30 02:43:47;;;;;;;11.00;2.72;;;12.70;99.90;;;;;;2080982;28;20037;-71
2022/05/30 02:44:49;;;;;;;8.13;2.33;;;12.60;99.90;;;;;;2083712;28;20016;-71
2022/05/30 02:45:49;;;;;;;10.95;2.90;;;12.60;99.90;;;;;;2080114;28;20014;-71
2022/05/30 02:46:52;;;;;;;7.32;2.50;;;12.60;99.90;;;;;;2083493;28;20021;-71
2022/05/30 02:47:53;;;;;;;14.55;3.15;;;12.60;99.90;;;;;;2084559;28;21200;-71
2022/05/30 02:48:54;;;;;;;10.98;2.42;;;12.60;99.90;;;;;;2083157;28;20375;-71
2022/05/30 02:49:54;;;;;;;8.68;2.70;;;12.50;99.90;;;;;;2081254;28;20021;-72
2022/05/30 02:50:55;;;;;;;10.82;2.50;;;12.60;99.90;;;;;;2083721;28;20017;-71
2022/05/30 02:51:56;;;;;;;12.15;2.90;;;12.60;99.90;;;;;;2080494;28;20383;-71
2022/05/30 02:52:57;;;;;;;10.23;2.67;;;12.50;99.90;;;;;;2080684;28;20092;-71
2022/05/30 02:53:57;;;;;;;6.95;2.65;;;12.50;99.90;;;;;;2080532;28;20108;-71
2022/05/30 02:54:58;;;;;;;9.45;2.60;;;12.50;99.90;;;;;;2081958;28;20027;-71
2022/05/30 02:55:59;;;;;;;7.93;2.42;;;12.50;99.90;;;;;;2083640;28;20052;-71
2022/05/30 02:57:00;;;;;;;6.88;2.45;;;12.50;99.90;;;;;;2083497;28;20029;-71
2022/05/30 02:58:00;;;;;;;6.00;2.10;;;12.60;99.90;;;;;;2087376;28;20029;-71
2022/05/30 02:59:02;;;;;;;7.97;2.83;;;12.50;99.90;;;;;;2083243;28;20037;-71
2022/05/30 03:00:04;;;;;;;6.28;2.53;;;12.50;99.90;;;;;;2084504;28;20108;-71
2022/05/30 03:01:05;;;;;;;7.90;2.42;;;12.50;99.90;;;;;;2085322;28;20033;-71
2022/05/30 03:02:05;;;;;;;10.93;2.58;;;12.60;99.90;;;;;;2084075;28;20025;-71
2022/05/30 03:03:06;;;;;;;9.43;3.10;;;12.50;99.90;;;;;;2083953;28;20017;-71
2022/05/30 03:04:07;;;;;;;8.13;2.90;;;12.50;99.90;;;;;;2081041;28;20056;-72
2022/05/30 03:05:07;;;;;;;9.10;2.70;;;12.60;99.90;;;;;;2086457;28;20032;-72
2022/05/30 03:06:08;;;;;;;8.10;2.60;;;12.60;99.90;;;;;;2082663;28;20022;-71
2022/05/30 03:07:09;;;;;;;10.77;2.78;;;12.60;99.90;;;;;;2082585;28;20036;-71
2022/05/30 03:08:09;;;;;;;10.35;2.90;;;12.60;99.90;;;;;;2082279;28;20018;-71
2022/05/30 03:09:11;;;;;;;13.00;3.22;;;12.50;99.90;;;;;;2082430;28;20202;-71
2022/05/30 03:10:12;;;;;;;11.18;2.88;;;12.60;99.90;;;;;;2081116;28;20478;-71
2022/05/30 03:11:13;;;;;;;10.25;3.13;;;12.60;99.90;;;;;;2084295;28;20107;-72
2022/05/30 03:12:14;;;;;;;9.38;2.45;;;12.50;99.90;;;;;;2079179;28;20024;-71
2022/05/30 03:13:16;;;;;;;10.20;2.97;;;12.50;99.90;;;;;;2082798;28;20037;-71
2022/05/30 03:14:16;;;;;;;12.63;3.30;;;12.60;99.90;;;;;;2087462;28;20107;-71
2022/05/30 03:15:17;;;;;;;10.10;2.58;;;12.50;99.90;;;;;;2084727;28;20025;-72
2022/05/30 03:16:17;;;;;;;10.05;2.83;;;12.50;99.90;;;;;;2086031;28;20439;-71
2022/05/30 03:17:18;;;;;;;10.23;2.67;;;12.50;99.90;;;;;;2080767;28;20026;-72
2022/05/30 03:18:18;;;;;;;10.13;2.60;;;12.50;99.90;;;;;;2084847;28;20529;-71
2022/05/30 03:19:19;;;;;;;8.00;2.47;;;12.50;99.90;;;;;;2083952;28;20095;-71
2022/05/30 03:20:20;;;;;;;8.35;2.35;;;12.50;99.90;;;;;;2086717;28;20053;-71
2022/05/30 03:21:21;;;;;;;11.52;2.72;;;12.50;99.90;;;;;;2089386;28;20025;-71
2022/05/30 03:22:21;;;;;;;13.15;2.85;;;12.50;99.90;;;;;;2082999;28;20554;-71
2022/05/30 03:23:22;;;;;;;10.10;2.60;;;12.50;99.90;;;;;;2081519;28;20025;-71
2022/05/30 03:24:23;;;;;;;6.10;2.22;;;12.50;99.90;;;;;;2082075;28;20120;-72
2022/05/30 03:25:24;;;;;;;7.47;2.10;;;12.50;99.90;;;;;;2079936;28;20033;-71
2022/05/30 03:26:25;;;;;;;10.70;3.08;;;12.50;99.90;;;;;;2083230;28;20021;-71
2022/05/30 03:27:25;;;;;;;9.27;2.58;;;12.50;99.90;;;;;;2084083;28;20076;-71
2022/05/30 03:28:26;;;;;;;11.77;2.75;;;12.50;99.90;;;;;;2085310;28;20013;-71
2022/05/30 03:29:26;;;;;;;10.15;2.70;;;12.50;99.90;;;;;;2086130;28;20040;-71
2022/05/30 03:30:27;;;;;;;8.02;2.65;;;12.50;99.90;;;;;;2080258;28;20159;-71
2022/05/30 03:31:28;;;;;;;10.07;3.33;;;12.50;99.90;;;;;;2086635;28;20025;-71
2022/05/30 03:32:28;;;;;;;9.38;2.20;;;12.50;99.90;;;;;;2080600;28;20474;-71
2022/05/30 03:33:29;;;;;;;9.93;2.67;;;12.50;99.90;;;;;;2079752;28;20668;-71
2022/05/30 03:34:30;;;;;;;10.75;2.65;;;12.50;99.90;;;;;;2080494;28;20416;-71
2022/05/30 03:35:31;;;;;;;10.57;2.75;;;12.50;99.90;;;;;;2083001;28;20029;-71
2022/05/30 03:36:32;;;;;;;11.38;2.65;;;12.50;99.90;;;;;;2082704;28;20021;-71
2022/05/30 03:37:36;;;;;;;10.25;2.20;;;12.50;99.90;;;;;;2082483;28;20032;-71
2022/05/30 03:38:37;;;;;;;10.98;2.53;;;12.50;99.90;;;;;;2080491;28;20148;-71
2022/05/30 03:39:37;;;;;;;11.07;2.90;;;12.50;99.90;;;;;;2082021;28;20059;-71
2022/05/30 03:40:38;;;;;;;10.07;2.63;;;12.50;99.90;;;;;;2080589;28;20551;-72
2022/05/30 03:41:39;;;;;;;12.27;3.08;;;12.50;99.90;;;;;;2081058;28;20079;-71
2022/05/30 03:42:40;;;;;;;8.23;2.60;;;12.50;99.90;;;;;;2083804;28;20029;-71
2022/05/30 03:43:40;;;;;;;8.00;2.83;;;12.50;99.90;;;;;;2080945;28;20071;-72
2022/05/30 03:44:41;;;;;;;7.50;2.22;;;12.50;99.90;;;;;;2085342;28;20017;-71
2022/05/30 03:45:43;;;;;;;11.55;3.10;;;12.50;99.90;;;;;;2081026;28;20637;-71
2022/05/30 03:46:44;;;;;;;6.60;2.50;;;12.50;99.90;;;;;;2081323;28;20044;-71
2022/05/30 03:47:45;;;;;;;7.97;2.55;;;12.50;99.90;;;;;;2083113;28;20021;-71
2022/05/30 03:48:46;;;;;;;7.50;2.25;;;12.50;99.90;;;;;;2085209;28;20431;-71
2022/05/30 03:49:46;;;;;;;7.47;2.65;;;12.50;99.90;;;;;;2083641;28;20022;-71
2022/05/30 03:50:49;;;;;;;12.73;3.03;;;12.50;99.90;;;;;;2084034;28;20025;-71
2022/05/30 03:51:50;;;;;;;10.57;2.75;;;12.50;99.90;;;;;;2080702;28;20032;-71
2022/05/30 03:52:51;;;;;;;12.77;3.67;;;12.50;99.90;;;;;;2079968;28;20038;-71
2022/05/30 03:53:52;;;;;;;11.23;2.80;;;12.50;99.90;;;;;;2079756;28;20025;-71
2022/05/30 03:54:53;;;;;;;9.50;3.08;;;12.50;99.90;;;;;;2086545;28;20032;-71
2022/05/30 03:55:54;;;;;;;7.47;2.20;;;12.50;99.90;;;;;;2080828;28;20076;-71
2022/05/30 03:56:54;;;;;;;10.48;2.75;;;12.50;99.90;;;;;;2080151;28;20176;-71
2022/05/30 03:57:55;;;;;;;8.18;2.65;;;12.50;99.90;;;;;;2082454;28;20022;-71
2022/05/30 03:58:55;;;;;;;9.52;3.03;;;12.50;99.90;;;;;;2083138;28;20025;-71
2022/05/30 03:59:56;;;;;;;6.97;2.50;;;12.50;99.90;;;;;;2083030;28;20025;-71
2022/05/30 04:00:56;;;;;;;12.52;3.00;;;12.50;99.90;;;;;;2082539;28;20485;-71
2022/05/30 04:01:57;;;;;;;6.43;2.33;;;12.50;99.90;;;;;;2081322;28;20065;-71
2022/05/30 04:02:59;;;;;;;6.20;2.30;;;12.50;99.90;;;;;;2083899;28;20068;-71
2022/05/30 04:03:59;;;;;;;8.77;2.80;;;12.50;99.90;;;;;;2081636;28;20033;-71
2022/05/30 04:05:00;;;;;;;8.90;3.05;;;12.50;99.90;;;;;;2083080;28;20044;-71
2022/05/30 04:06:00;;;;;;;8.60;2.50;;;12.50;99.90;;;;;;2085198;28;20026;-71
2022/05/30 04:07:01;;;;;;;6.63;2.63;;;12.50;99.90;;;;;;2079123;28;20029;-71
2022/05/30 04:08:02;;;;;;;5.05;2.10;;;12.50;99.90;;;;;;2088229;28;20032;-71
2022/05/30 04:09:02;;;;;;;7.93;2.72;;;12.50;99.90;;;;;;2082206;28;20037;-71
2022/05/30 04:10:04;;;;;;;9.48;2.08;;;12.50;99.90;;;;;;2081430;28;20021;-71
2022/05/30 04:11:04;;;;;;;6.20;2.33;;;12.50;99.90;;;;;;2082849;28;20069;-71
2022/05/30 04:12:05;;;;;;;10.27;2.90;;;12.50;99.90;;;;;;2081090;28;20521;-71
2022/05/30 04:13:08;;;;;;;10.15;2.80;;;12.50;99.90;;;;;;2085168;28;20021;-71
2022/05/30 04:14:09;;;;;;;10.23;2.83;;;12.60;99.90;;;;;;2086098;28;20032;-71
2022/05/30 04:15:17;;;;;;;9.93;2.85;;;12.50;99.90;;;;;;2085508;28;20068;-71
2022/05/30 04:16:18;;;;;;;8.73;2.58;;;12.50;99.90;;;;;;2088890;28;20061;-71
2022/05/30 04:17:18;;;;;;;14.55;3.72;;;12.50;99.90;;;;;;2080464;28;20032;-71
2022/05/30 04:18:19;;;;;;;9.23;2.90;;;12.50;99.90;;;;;;2085757;28;20036;-71
2022/05/30 04:19:19;;;;;;;9.40;2.85;;;12.50;99.90;;;;;;2081683;28;20072;-71
2022/05/30 04:20:20;;;;;;;9.88;3.38;;;12.50;99.90;;;;;;2082125;28;20032;-71
2022/05/30 04:21:22;;;;;;;9.95;2.70;;;12.50;99.90;;;;;;2080764;28;20076;-71
2022/05/30 04:22:22;;;;;;;12.68;3.95;;;12.50;99.90;;;;;;2082743;28;20946;-71
2022/05/30 04:23:23;;;;;;;7.80;2.58;;;12.50;99.90;;;;;;2084182;28;20029;-71
2022/05/30 04:24:24;;;;;;;9.20;2.35;;;12.50;99.90;;;;;;2089248;28;20192;-71
2022/05/30 04:25:24;;;;;;;8.35;3.05;;;12.50;99.90;;;;;;2081358;28;20032;-71
2022/05/30 04:26:25;;;;;;;8.02;3.05;;;12.50;99.90;;;;;;2081604;28;20021;-71
2022/05/30 04:27:25;;;;;;;11.85;2.90;;;12.50;99.90;;;;;;2085670;28;20021;-71
2022/05/30 04:28:26;;;;;;;11.30;2.70;;;12.50;99.90;;;;;;2079666;28;20524;-71
2022/05/30 04:29:29;;;;;;;8.68;2.80;;;12.50;99.90;;;;;;2080309;28;20104;-71
2022/05/30 04:30:30;;;;;;;9.52;2.90;;;12.40;99.90;;;;;;2083814;28;20053;-71
2022/05/30 04:31:30;;;;;;;8.45;2.72;;;12.50;99.90;;;;;;2082724;28;20021;-71
2022/05/30 04:32:31;;;;;;;5.95;2.17;;;12.40;99.90;;;;;;2082129;28;20021;-71
2022/05/30 04:33:33;;;;;;;8.75;3.03;;;12.40;99.90;;;;;;2083283;28;20026;-71
2022/05/30 04:34:33;;;;;;;8.25;2.80;;;12.40;99.90;;;;;;2080977;28;20029;-71
2022/05/30 04:35:34;;;;;;;9.27;2.42;;;12.40;99.90;;;;;;2080362;28;20025;-71
2022/05/30 04:36:34;;;;;;;7.70;2.30;;;12.50;99.90;;;;;;2082222;28;20024;-71
2022/05/30 04:37:35;;;;;;;11.65;2.75;;;12.50;99.90;;;;;;2071611;28;20030;-71
2022/05/30 04:38:36;;;;;;;6.15;2.35;;;12.50;99.90;;;;;;2082330;28;20037;-71
2022/05/30 04:39:37;;;;;;;10.18;2.85;;;12.50;99.90;;;;;;2084173;28;20032;-71
2022/05/30 04:40:37;;;;;;;9.98;2.70;;;12.50;99.90;;;;;;2081982;28;20526;-71
2022/05/30 04:41:38;;;;;;;9.45;3.05;;;12.50;99.90;;;;;;2080712;28;20022;-71
2022/05/30 04:42:38;;;;;;;8.80;2.58;;;12.50;99.90;;;;;;2080310;28;20041;-71
2022/05/30 04:43:39;;;;;;;10.02;2.97;;;12.50;99.90;;;;;;2080422;28;20025;-71
2022/05/30 04:44:39;;;;;;;11.20;2.90;;;12.50;99.90;;;;;;2084509;28;20453;-71
2022/05/30 04:45:40;;;;;;;7.97;2.55;;;12.50;99.90;;;;;;2081821;28;20826;-71
2022/05/30 04:46:40;;;;;;;11.45;3.40;;;12.50;99.90;;;;;;2082582;28;20072;-71
2022/05/30 04:47:41;;;;;;;9.07;2.80;;;12.50;99.90;;;;;;2081654;28;20017;-71
2022/05/30 04:48:43;;;;;;;11.82;3.03;;;12.50;99.90;;;;;;2082235;28;20107;-71
2022/05/30 04:49:45;;;;;;;7.93;2.42;;;12.60;99.90;;;;;;2080061;28;20044;-71
2022/05/30 04:50:46;;;;;;;6.63;2.13;;;12.60;99.90;;;;;;2081148;28;20448;-71
2022/05/30 04:51:46;;;;;;;7.50;2.60;;;12.60;99.90;;;;;;2079710;28;20029;-71
2022/05/30 04:52:47;;;;;;;6.15;2.38;;;12.60;99.90;;;;;;2079627;28;20425;-71
2022/05/30 04:53:51;;;;;;;9.88;2.70;;;12.60;99.90;;;;;;2082720;28;20013;-72
2022/05/30 04:54:51;;;;;;;11.25;3.08;;;12.60;99.90;;;;;;2082888;28;20106;-71
2022/05/30 04:55:52;;;;;;;13.10;3.10;;;12.60;99.90;;;;;;2079782;28;20555;-71
2022/05/30 04:56:53;;;;;;;9.75;2.80;;;12.60;99.90;;;;;;2085852;28;20504;-71
2022/05/30 04:57:53;;;;;;;13.95;2.53;;;12.70;99.90;;;;;;2084577;28;20091;-71
2022/05/30 04:58:54;;;;;;;8.57;2.67;;;12.70;99.90;;;;;;2080423;28;20033;-71
2022/05/30 04:59:54;;;;;;;7.07;2.33;;;12.70;99.90;;;;;;2079608;28;20477;-71
2022/05/30 05:01:05;;;;;;;7.72;2.70;;;12.70;99.90;;;;;;2081954;28;20022;-71
2022/05/30 05:02:05;;;;;;;9.82;3.33;;;12.70;99.90;;;;;;2080930;28;20075;-71
2022/05/30 05:03:06;;;;;;;14.68;3.05;;;12.70;99.90;;;;;;2084391;28;20080;-71
2022/05/30 05:04:08;;;;;;;7.45;2.75;;;12.70;99.90;;;;;;2082124;28;20482;-71
2022/05/30 05:05:10;;;;;;;10.45;2.97;;;12.80;99.90;;;;;;2086487;28;20032;-71
2022/05/30 05:06:17;;;;;;;15.07;3.35;;;12.80;99.90;;;;;;2081445;28;20581;-71
2022/05/30 05:07:18;;;;;;;10.18;3.58;;;12.80;99.90;;;;;;2080864;28;20033;-71
2022/05/30 05:08:18;;;;;;;14.70;3.15;;;12.70;99.90;;;;;;2080436;28;20025;-71
2022/05/30 05:09:35;;;;;;;14.50;3.67;;;12.80;99.90;;;;;;2083173;28;20030;-71
2022/05/30 05:10:55;;;;;;;12.98;3.17;;;12.80;99.90;;;;;;2082708;28;20037;-72
2022/05/30 05:11:55;;;;;;;9.55;3.00;;;12.70;99.90;;;;;;2079703;28;20022;-71
2022/05/30 05:12:56;;;;;;;9.57;2.90;;;12.70;99.90;;;;;;2083653;28;20017;-71
2022/05/30 05:13:56;;;;;;;8.05;2.97;;;12.80;99.90;;;;;;2082773;28;20032;-71
2022/05/30 05:14:57;;;;;;;9.60;2.67;;;12.80;99.90;;;;;;2085465;28;20104;-71
2022/05/30 05:15:58;;;;;;;9.75;2.50;;;12.80;99.90;;;;;;2082798;28;20424;-71
2022/05/30 05:16:58;;;;;;;7.40;2.58;;;12.80;99.90;;;;;;2081165;28;20039;-71
2022/05/30 05:17:59;;;;;;;7.10;2.97;;;12.80;99.90;;;;;;2081501;28;20038;-71
2022/05/30 05:19:00;;;;;;;14.88;3.40;;;12.80;99.90;;;;;;2084390;28;20029;-71
2022/05/30 05:20:01;;;;;;;10.70;3.80;;;12.80;99.90;;;;;;2084007;28;20527;-71
2022/05/30 05:21:02;;;;;;;13.93;3.55;;;12.80;99.90;;;;;;2082410;28;20385;-71
2022/05/30 05:22:02;;;;;;;10.38;3.13;;;12.80;99.90;;;;;;2084897;28;20083;-71
2022/05/30 05:23:03;;;;;;;8.10;2.38;;;12.80;99.90;;;;;;2081709;28;20030;-72
2022/05/30 05:24:06;;;;;;;14.63;3.38;;;12.80;99.90;;;;;;2085322;28;20036;-71
2022/05/30 05:25:07;;;;;;;12.82;3.58;;;12.80;99.90;;;;;;2081913;28;20389;-71
2022/05/30 05:26:08;;;;;;;11.85;3.15;;;12.80;99.90;;;;;;2086050;28;20045;-71
2022/05/30 05:27:08;;;;;;;8.95;2.83;;;12.80;99.90;;;;;;2089272;28;20035;-71
2022/05/30 05:28:09;;;;;;;11.27;3.25;;;12.80;99.90;;;;;;2083660;28;20030;-71
2022/05/30 05:29:10;;;;;;;11.60;3.40;;;12.80;99.90;;;;;;2080253;28;20018;-71